Aviation Digital Data Service (ADDS)

Output produced by METARs form (2317 UTC 23 May 2022)
found at http://www.aviationweather.gov/metar/data/
 
TAF LAKU 232300Z 2400/2424 VRB05KT CAVOK TX28/2412Z TN13/2403Z
       
LATI 232250Z VRB02KT CAVOK 19/14 Q1011 NOSIG
TAF LATI 232300Z 2400/2424 VRB05KT CAVOK TX30/2412Z TN15/2403Z